createdAt,value
2024-02-04T00:00:06.760Z,101555.44
2024-02-04T00:02:33.901Z,101568.53
2024-02-04T00:05:00.555Z,101562.41
2024-02-04T00:07:28.127Z,101571.16
2024-02-04T00:09:54.803Z,101570.28
2024-02-04T00:12:21.714Z,101572.91
2024-02-04T00:14:50.750Z,101572.00
2024-02-04T00:17:17.819Z,101560.69
2024-02-04T00:19:44.854Z,101555.47
2024-02-04T00:22:11.604Z,101563.31
2024-02-04T00:24:38.327Z,101557.19
2024-02-04T00:27:05.197Z,101548.50
2024-02-04T00:29:31.650Z,101533.66
2024-02-04T00:31:58.113Z,101534.53
2024-02-04T00:34:24.713Z,101541.50
2024-02-04T00:36:51.304Z,101538.00
2024-02-04T00:39:17.834Z,101537.13
2024-02-04T00:41:44.458Z,101531.03
2024-02-04T00:44:11.106Z,101541.50
2024-02-04T00:46:37.597Z,101541.50
2024-02-04T00:49:04.364Z,101548.47
2024-02-04T00:51:31.416Z,101544.13
2024-02-04T00:53:58.061Z,101535.41
2024-02-04T00:56:24.775Z,101536.25
2024-02-04T00:58:51.324Z,101538.88
2024-02-04T01:01:18.438Z,101529.31
2024-02-04T01:03:45.239Z,101531.94
2024-02-04T01:06:11.999Z,101532.78
2024-02-04T01:08:38.866Z,101532.78
2024-02-04T01:11:06.819Z,101535.41
2024-02-04T01:13:33.695Z,101539.78
2024-02-04T01:16:00.311Z,101527.56
2024-02-04T01:18:26.989Z,101531.06
2024-02-04T01:20:53.547Z,101521.47
2024-02-04T01:23:20.919Z,101520.59
2024-02-04T01:25:47.467Z,101515.34
2024-02-04T01:28:14.004Z,101523.19
2024-02-04T01:30:40.613Z,101521.47
2024-02-04T01:33:07.202Z,101521.44
2024-02-04T01:35:33.728Z,101524.91
2024-02-04T01:38:00.225Z,101531.91
2024-02-04T01:40:27.349Z,101536.25
2024-02-04T01:42:53.953Z,101545.84
2024-02-04T01:45:20.457Z,101551.94
2024-02-04T01:47:47.065Z,101529.28
2024-02-04T01:50:13.796Z,101535.41
2024-02-04T01:52:43.238Z,101523.19
2024-02-04T01:55:10.573Z,101514.47
2024-02-04T01:57:37.430Z,101514.47
2024-02-04T02:00:10.163Z,101522.31
2024-02-04T02:02:41.043Z,101515.31
2024-02-04T02:05:09.554Z,101514.47
2024-02-04T02:07:36.381Z,101517.97
2024-02-04T02:10:03.067Z,101516.19
2024-02-04T02:12:47.236Z,101512.69
2024-02-04T02:15:28.708Z,101510.97
2024-02-04T02:18:08.477Z,101514.44
2024-02-04T02:21:06.965Z,101506.59
2024-02-04T02:23:50.209Z,101512.69
2024-02-04T02:26:18.134Z,101510.09
2024-02-04T02:28:44.640Z,101504.84
2024-02-04T02:31:11.861Z,101508.34
2024-02-04T02:33:38.551Z,101517.06
2024-02-04T02:36:14.170Z,101513.56
2024-02-04T02:39:04.548Z,101503.09
2024-02-04T02:41:32.046Z,101506.59
2024-02-04T02:44:01.289Z,101500.47
2024-02-04T02:46:28.800Z,101504.84
2024-02-04T02:48:55.421Z,101517.91
2024-02-04T02:51:22.003Z,101517.94
2024-02-04T02:53:48.484Z,101519.66
2024-02-04T02:56:15.202Z,101513.56
2024-02-04T02:58:41.685Z,101505.72
2024-02-04T03:01:08.415Z,101507.44
2024-02-04T03:03:35.435Z,101503.06
2024-02-04T03:06:02.063Z,101509.19
2024-02-04T03:08:28.646Z,101498.72
2024-02-04T03:10:55.169Z,101494.34
2024-02-04T03:13:21.760Z,101505.69
2024-02-04T03:15:48.444Z,101497.81
2024-02-04T03:18:14.983Z,101505.69
2024-02-04T03:20:41.572Z,101497.81
2024-02-04T03:23:08.202Z,101491.75
2024-02-04T03:25:34.761Z,101494.34
2024-02-04T03:28:01.375Z,101491.72
2024-02-04T03:30:28.057Z,101486.50
2024-02-04T03:32:55.030Z,101487.38
2024-02-04T03:35:21.641Z,101484.75
2024-02-04T03:37:48.181Z,101478.66
2024-02-04T03:40:14.854Z,101490.84
2024-02-04T03:42:41.858Z,101485.63
2024-02-04T03:45:08.776Z,101485.63
2024-02-04T03:47:35.317Z,101476.91
2024-02-04T03:50:02.033Z,101476.88
2024-02-04T03:52:28.678Z,101480.38
2024-02-04T03:54:55.170Z,101470.78
2024-02-04T03:57:21.731Z,101476.00
2024-02-04T03:59:48.340Z,101482.13
2024-02-04T04:02:14.900Z,101484.75
2024-02-04T04:04:48.788Z,101483.88
2024-02-04T04:07:15.674Z,101489.97
2024-02-04T04:09:42.308Z,101476.88
2024-02-04T04:12:08.938Z,101463.81
2024-02-04T04:14:35.452Z,101473.38
2024-02-04T04:17:01.929Z,101485.59
2024-02-04T04:19:28.737Z,101477.75
2024-02-04T04:21:55.670Z,101475.13
2024-02-04T04:24:23.467Z,101486.47
2024-02-04T04:26:50.086Z,101489.09
2024-02-04T04:29:16.591Z,101486.47
2024-02-04T04:31:43.099Z,101489.97
2024-02-04T04:34:09.820Z,101481.25
2024-02-04T04:36:36.445Z,101498.72
2024-02-04T04:39:03.169Z,101513.53
2024-02-04T04:41:29.751Z,101523.13
2024-02-04T04:43:56.336Z,101527.47
2024-02-04T04:46:22.853Z,101525.72
2024-02-04T04:48:49.553Z,101530.09
2024-02-04T04:51:16.235Z,101521.38
2024-02-04T04:53:42.800Z,101530.09
2024-02-04T04:56:09.333Z,101514.41
2024-02-04T04:58:38.727Z,101499.56
2024-02-04T05:01:06.808Z,101489.97
2024-02-04T05:03:33.832Z,101482.97
2024-02-04T05:06:02.152Z,101488.22
2024-02-04T05:08:28.723Z,101496.06
2024-02-04T05:10:55.195Z,101491.69
2024-02-04T05:13:21.767Z,101490.84
2024-02-04T05:15:48.506Z,101491.72
2024-02-04T05:18:15.189Z,101496.06
2024-02-04T05:20:41.841Z,101491.72
2024-02-04T05:23:08.990Z,101489.09
2024-02-04T05:25:35.559Z,101489.09
2024-02-04T05:28:02.133Z,101492.59
2024-02-04T05:30:28.682Z,101497.81
2024-02-04T05:32:55.235Z,101489.09
2024-02-04T05:35:21.853Z,101489.97
2024-02-04T05:37:48.374Z,101492.59
2024-02-04T05:40:16.655Z,101483.88
2024-02-04T05:42:43.747Z,101479.53
2024-02-04T05:45:10.401Z,101477.75
2024-02-04T05:47:37.027Z,101473.41
2024-02-04T05:50:03.907Z,101473.41
2024-02-04T05:52:30.507Z,101471.66
2024-02-04T05:54:57.111Z,101462.94
2024-02-04T05:57:23.757Z,101453.34
2024-02-04T05:59:53.767Z,101457.69
2024-02-04T06:02:20.326Z,101462.03
2024-02-04T06:04:48.108Z,101446.38
2024-02-04T06:07:14.683Z,101448.09
2024-02-04T06:09:41.315Z,101447.22
2024-02-04T06:12:08.257Z,101445.50
2024-02-04T06:14:36.010Z,101448.13
2024-02-04T06:17:02.558Z,101454.19
2024-02-04T06:19:29.223Z,101451.56
2024-02-04T06:21:55.817Z,101462.06
2024-02-04T06:24:22.510Z,101468.16
2024-02-04T06:26:49.027Z,101454.19
2024-02-04T06:29:15.556Z,101451.59
2024-02-04T06:31:45.855Z,101449.81
2024-02-04T06:34:12.603Z,101449.84
2024-02-04T06:36:39.695Z,101440.25
2024-02-04T06:39:08.237Z,101442.00
2024-02-04T06:41:35.780Z,101433.25
2024-02-04T06:44:05.351Z,101423.69
2024-02-04T06:46:31.959Z,101427.16
2024-02-04T06:48:58.908Z,101433.25
2024-02-04T06:51:25.496Z,101441.09
2024-02-04T06:53:52.096Z,101444.59
2024-02-04T06:56:18.664Z,101436.75
2024-02-04T06:58:45.226Z,101434.16
2024-02-04T07:01:12.916Z,101429.75
2024-02-04T07:03:39.742Z,101417.56
2024-02-04T07:06:06.822Z,101410.56
2024-02-04T07:08:33.393Z,101416.72
2024-02-04T07:11:00.679Z,101434.13
2024-02-04T07:13:27.457Z,101425.41
2024-02-04T07:15:55.535Z,101427.16
2024-02-04T07:18:23.298Z,101429.78
2024-02-04T07:20:50.140Z,101428.91
2024-02-04T07:23:16.726Z,101426.28
2024-02-04T07:25:43.304Z,101423.69
2024-02-04T07:28:10.239Z,101425.44
2024-02-04T07:30:36.858Z,101436.78
2024-02-04T07:33:03.602Z,101448.13
2024-02-04T07:35:30.254Z,101442.88
2024-02-04T07:37:56.789Z,101437.63
2024-02-04T07:40:23.359Z,101431.53
2024-02-04T07:42:50.039Z,101437.63
2024-02-04T07:45:16.826Z,101455.06
2024-02-04T07:47:43.360Z,101454.19
2024-02-04T07:50:10.208Z,101443.75
2024-02-04T07:52:36.925Z,101436.75
2024-02-04T07:55:03.527Z,101431.50
2024-02-04T07:57:30.196Z,101428.03
2024-02-04T07:59:56.922Z,101431.50
2024-02-04T08:02:23.514Z,101434.13
2024-02-04T08:04:50.152Z,101425.44
2024-02-04T08:07:18.669Z,101432.41
2024-02-04T08:09:46.553Z,101428.91
2024-02-04T08:12:13.139Z,101421.06
2024-02-04T08:14:39.738Z,101410.59
2024-02-04T08:17:06.261Z,101415.81
2024-02-04T08:19:32.958Z,101425.41
2024-02-04T08:21:59.925Z,101428.03
2024-02-04T08:24:26.557Z,101428.03
2024-02-04T08:26:54.134Z,101437.66
2024-02-04T08:29:20.604Z,101435.03
2024-02-04T08:31:47.133Z,101430.63
2024-02-04T08:34:13.735Z,101434.16
2024-02-04T08:36:40.370Z,101433.25
2024-02-04T08:39:06.941Z,101433.25
2024-02-04T08:41:33.447Z,101430.63
2024-02-04T08:44:03.137Z,101428.91
2024-02-04T08:46:30.914Z,101434.16
2024-02-04T08:48:57.593Z,101425.38
2024-02-04T08:51:24.170Z,101427.09
2024-02-04T08:53:50.708Z,101429.75
2024-02-04T08:56:17.233Z,101435.81
2024-02-04T08:58:44.803Z,101432.34
2024-02-04T09:01:11.442Z,101433.22
2024-02-04T09:03:38.303Z,101435.84
2024-02-04T09:06:05.458Z,101427.97
2024-02-04T09:08:32.042Z,101428.88
2024-02-04T09:10:58.671Z,101427.97
2024-02-04T09:13:25.230Z,101417.50
2024-02-04T09:15:52.249Z,101430.59
2024-02-04T09:18:18.860Z,101427.97
2024-02-04T09:20:46.222Z,101430.56
2024-02-04T09:23:13.231Z,101441.88
2024-02-04T09:25:40.164Z,101442.75
2024-02-04T09:28:06.901Z,101444.53
2024-02-04T09:30:33.518Z,101445.34
2024-02-04T09:33:00.371Z,101443.59
2024-02-04T09:35:27.602Z,101445.34
2024-02-04T09:37:54.280Z,101441.84
2024-02-04T09:40:21.107Z,101447.09
2024-02-04T09:42:47.832Z,101449.72
2024-02-04T09:45:16.069Z,101449.72
2024-02-04T09:47:44.969Z,101450.63
2024-02-04T09:50:11.847Z,101447.09
2024-02-04T09:52:44.449Z,101443.63
2024-02-04T09:55:14.162Z,101441.88
2024-02-04T09:57:40.771Z,101431.44
2024-02-04T10:00:09.593Z,101440.13
2024-02-04T10:02:37.104Z,101447.09
2024-02-04T10:05:04.866Z,101435.72
2024-02-04T10:07:32.043Z,101428.72
2024-02-04T10:09:58.738Z,101428.72
2024-02-04T10:12:25.343Z,101425.19
2024-02-04T10:14:51.833Z,101436.53
2024-02-04T10:17:18.370Z,101436.53
2024-02-04T10:19:45.031Z,101445.25
2024-02-04T10:22:11.982Z,101438.28
2024-02-04T10:24:38.673Z,101453.09
2024-02-04T10:27:05.464Z,101440.03
2024-02-04T10:29:32.108Z,101447.84
2024-02-04T10:31:59.115Z,101450.47
2024-02-04T10:34:30.997Z,101445.22
2024-02-04T10:36:58.374Z,101441.72
2024-02-04T10:39:24.975Z,101439.97
2024-02-04T10:41:53.653Z,101441.72
2024-02-04T10:44:25.185Z,101440.81
2024-02-04T10:46:52.946Z,101455.66
2024-02-04T10:49:20.940Z,101446.06
2024-02-04T10:51:48.493Z,101440.84
2024-02-04T10:54:22.050Z,101444.34
2024-02-04T10:56:56.912Z,101437.38
2024-02-04T10:59:24.164Z,101442.63
2024-02-04T11:01:51.383Z,101438.28
2024-02-04T11:04:19.540Z,101429.59
2024-02-04T11:06:46.747Z,101425.19
2024-02-04T11:09:15.634Z,101427.84
2024-02-04T11:11:43.253Z,101426.09
2024-02-04T11:14:13.618Z,101421.75
2024-02-04T11:16:46.228Z,101425.22
2024-02-04T11:19:40.817Z,101431.31
2024-02-04T11:22:16.419Z,101420.88
2024-02-04T11:25:04.313Z,101411.25
2024-02-04T11:27:31.536Z,101413.84
2024-02-04T11:29:58.357Z,101400.78
2024-02-04T11:32:26.682Z,101391.22
2024-02-04T11:34:56.427Z,101393.78
2024-02-04T11:37:25.565Z,101386.84
2024-02-04T11:39:53.506Z,101392.06
2024-02-04T11:42:21.553Z,101394.72
2024-02-04T11:44:48.261Z,101389.41
2024-02-04T11:47:25.823Z,101378.91
2024-02-04T11:49:59.893Z,101380.69
2024-02-04T11:52:29.861Z,101371.97
2024-02-04T11:54:57.002Z,101371.91
2024-02-04T11:57:24.633Z,101367.50
2024-02-04T11:59:53.588Z,101367.50
2024-02-04T12:02:21.328Z,101356.16
2024-02-04T12:04:49.542Z,101363.16
2024-02-04T12:07:16.920Z,101373.59
2024-02-04T12:09:44.186Z,101364.03
2024-02-04T12:12:10.793Z,101358.78
2024-02-04T12:14:37.901Z,101352.63
2024-02-04T12:17:11.722Z,101354.38
2024-02-04T12:19:43.979Z,101372.69
2024-02-04T12:22:12.152Z,101348.25
2024-02-04T12:24:40.137Z,101349.13
2024-02-04T12:27:07.056Z,101354.38
2024-02-04T12:29:33.828Z,101350.00
2024-02-04T12:32:01.497Z,101352.63
2024-02-04T12:34:28.533Z,101341.31
2024-02-04T12:37:00.433Z,101339.53
2024-02-04T12:39:27.573Z,101349.16
2024-02-04T12:41:54.669Z,101336.91
2024-02-04T12:44:21.379Z,101326.44
2024-02-04T12:46:52.830Z,101328.16
2024-02-04T12:49:22.474Z,101321.22
2024-02-04T12:51:49.636Z,101322.09
2024-02-04T12:54:16.560Z,101324.69
2024-02-04T12:56:46.495Z,101322.94
2024-02-04T12:59:24.612Z,101315.13
2024-02-04T13:02:07.297Z,101325.59
2024-02-04T13:04:38.868Z,101331.72
2024-02-04T13:07:18.487Z,101327.34
2024-02-04T13:09:48.184Z,101315.16
2024-02-04T13:12:16.851Z,101308.19
2024-02-04T13:14:43.755Z,101309.97
2024-02-04T13:17:10.884Z,101315.22
2024-02-04T13:19:39.509Z,101300.34
2024-02-04T13:22:15.791Z,101292.50
2024-02-04T13:24:42.714Z,101286.38
2024-02-04T13:27:09.406Z,101277.66
2024-02-04T13:29:36.482Z,101274.16
2024-02-04T13:32:03.174Z,101290.78
2024-02-04T13:34:29.855Z,101296.88
2024-02-04T13:36:56.814Z,101302.06
2024-02-04T13:39:23.656Z,101300.31
2024-02-04T13:41:50.249Z,101302.94
2024-02-04T13:44:16.898Z,101291.59
2024-02-04T13:46:44.253Z,101292.44
2024-02-04T13:49:13.529Z,101294.16
2024-02-04T13:51:44.698Z,101305.50
2024-02-04T13:54:16.879Z,101299.38
2024-02-04T13:56:44.385Z,101329.97
2024-02-04T13:59:11.068Z,101340.38
2024-02-04T14:01:37.653Z,101330.81
2024-02-04T14:04:04.445Z,101318.59
2024-02-04T14:06:31.071Z,101331.66
2024-02-04T14:08:57.577Z,101326.44
2024-02-04T14:11:24.104Z,101323.84
2024-02-04T14:13:50.640Z,101322.97
2024-02-04T14:16:17.451Z,101329.97
2024-02-04T14:18:47.334Z,101313.41
2024-02-04T14:21:16.786Z,101302.91
2024-02-04T14:23:44.191Z,101304.69
2024-02-04T14:26:21.291Z,101295.03
2024-02-04T14:28:48.060Z,101302.91
2024-02-04T14:31:14.913Z,101307.28
2024-02-04T14:33:42.581Z,101315.13
2024-02-04T14:36:09.743Z,101307.28
2024-02-04T14:38:38.846Z,101313.34
2024-02-04T14:41:05.917Z,101318.59
2024-02-04T14:43:32.503Z,101301.13
2024-02-04T14:45:59.854Z,101311.56
2024-02-04T14:48:26.758Z,101308.91
2024-02-04T14:50:54.369Z,101316.78
2024-02-04T14:53:21.270Z,101314.16
2024-02-04T14:55:47.899Z,101317.69
2024-02-04T14:58:14.540Z,101317.66
2024-02-04T15:00:41.274Z,101320.28
2024-02-04T15:03:08.200Z,101322.91
2024-02-04T15:05:34.672Z,101309.81
2024-02-04T15:08:01.667Z,101312.41
2024-02-04T15:10:28.260Z,101316.78
2024-02-04T15:12:55.260Z,101309.81
2024-02-04T15:15:22.370Z,101312.41
2024-02-04T15:17:49.156Z,101300.16
2024-02-04T15:20:19.481Z,101301.97
2024-02-04T15:22:46.662Z,101315.00
2024-02-04T15:25:16.115Z,101315.88
2024-02-04T15:27:45.193Z,101314.16
2024-02-04T15:30:15.292Z,101317.63
2024-02-04T15:32:42.196Z,101301.00
2024-02-04T15:35:09.344Z,101304.56
2024-02-04T15:37:36.580Z,101308.06
2024-02-04T15:40:03.293Z,101315.91
2024-02-04T15:42:29.848Z,101311.53
2024-02-04T15:44:56.372Z,101294.97
2024-02-04T15:47:24.630Z,101318.56
2024-02-04T15:49:51.611Z,101302.81
2024-02-04T15:52:18.394Z,101289.72
2024-02-04T15:54:45.295Z,101279.25
2024-02-04T15:57:16.108Z,101279.25
2024-02-04T15:59:56.152Z,101289.69
2024-02-04T16:02:22.937Z,101291.47
2024-02-04T16:04:52.207Z,101294.13
2024-02-04T16:07:21.329Z,101288.00
2024-02-04T16:09:49.717Z,101287.97
2024-02-04T16:12:20.865Z,101294.09
2024-02-04T16:14:50.284Z,101285.44
2024-02-04T16:17:19.491Z,101281.06
2024-02-04T16:19:46.687Z,101281.88
2024-02-04T16:22:15.720Z,101276.63
2024-02-04T16:24:46.112Z,101273.16
2024-02-04T16:27:12.777Z,101274.03
2024-02-04T16:29:39.332Z,101281.00
2024-02-04T16:32:05.917Z,101280.09
2024-02-04T16:34:34.862Z,101287.97
2024-02-04T16:37:03.540Z,101273.13
2024-02-04T16:39:30.517Z,101271.38
2024-02-04T16:41:57.171Z,101266.16
2024-02-04T16:44:24.073Z,101266.16
2024-02-04T16:46:53.910Z,101274.88
2024-02-04T16:49:21.387Z,101262.69
2024-02-04T16:51:48.832Z,101262.69
2024-02-04T16:54:19.146Z,101265.31
2024-02-04T16:56:49.831Z,101269.63
2024-02-04T16:59:16.600Z,101283.63
2024-02-04T17:04:10.427Z,101279.25
2024-02-04T17:06:37.380Z,101284.56
2024-02-04T17:09:15.394Z,101281.03
2024-02-04T17:11:44.274Z,101287.97
2024-02-04T17:14:15.158Z,101276.66
2024-02-04T17:16:41.788Z,101272.28
2024-02-04T17:19:23.629Z,101285.38
2024-02-04T17:21:56.908Z,101280.13
2024-02-04T17:24:29.564Z,101273.16
2024-02-04T17:26:57.546Z,101254.81
2024-02-04T17:29:24.626Z,101267.00
2024-02-04T17:31:51.397Z,101267.03
2024-02-04T17:34:18.354Z,101271.41
2024-02-04T17:36:45.048Z,101264.41
2024-02-04T17:39:13.142Z,101273.13
2024-02-04T17:41:40.720Z,101274.03
2024-02-04T17:44:07.448Z,101259.19
2024-02-04T17:46:34.093Z,101261.78
2024-02-04T17:49:00.812Z,101251.28
2024-02-04T17:51:29.659Z,101259.19
2024-02-04T17:53:59.020Z,101260.03
2024-02-04T17:56:25.550Z,101270.50
2024-02-04T17:58:53.489Z,101269.66
2024-02-04T18:01:24.079Z,101264.38
2024-02-04T18:03:51.236Z,101257.44
2024-02-04T18:06:17.996Z,101274.94
2024-02-04T18:08:44.487Z,101263.53
2024-02-04T18:11:21.457Z,101265.31
2024-02-04T18:13:48.811Z,101262.69
2024-02-04T18:16:15.523Z,101280.16
2024-02-04T18:18:44.135Z,101270.59
2024-02-04T18:21:21.805Z,101269.72
2024-02-04T18:23:49.374Z,101281.06
2024-02-04T18:26:27.384Z,101276.72
2024-02-04T18:28:59.128Z,101272.34
2024-02-04T18:31:30.283Z,101285.44
2024-02-04T18:33:57.978Z,101275.84
2024-02-04T18:36:25.565Z,101285.44
2024-02-04T18:38:53.770Z,101280.22
2024-02-04T18:41:21.272Z,101288.97
2024-02-04T18:43:48.852Z,101276.72
2024-02-04T18:46:16.408Z,101260.13
2024-02-04T18:48:44.450Z,101267.09
2024-02-04T18:51:11.206Z,101269.72
2024-02-04T18:53:38.333Z,101267.13
2024-02-04T18:56:10.158Z,101261.03
2024-02-04T18:58:36.733Z,101273.28
2024-02-04T19:01:04.284Z,101267.16
2024-02-04T19:03:31.138Z,101265.41
2024-02-04T19:05:57.904Z,101261.97
2024-02-04T19:08:27.161Z,101244.53
2024-02-04T19:10:54.047Z,101252.41
2024-02-04T19:13:20.947Z,101253.31
2024-02-04T19:15:47.622Z,101252.44
2024-02-04T19:18:14.408Z,101253.41
2024-02-04T19:20:41.391Z,101250.75
2024-02-04T19:23:08.338Z,101250.78
2024-02-04T19:25:34.931Z,101261.28
2024-02-04T19:28:03.281Z,101256.06
2024-02-04T19:30:30.304Z,101251.66
2024-02-04T19:32:57.011Z,101236.81
2024-02-04T19:35:28.511Z,101237.69
2024-02-04T19:37:56.106Z,101233.28
2024-02-04T19:40:23.548Z,101240.38
2024-02-04T19:42:54.441Z,101248.22
2024-02-04T19:45:21.421Z,101254.31
2024-02-04T19:47:49.449Z,101241.22
2024-02-04T19:50:16.724Z,101231.66
2024-02-04T19:52:45.542Z,101230.78
2024-02-04T19:55:13.653Z,101234.28
2024-02-04T19:57:40.489Z,101229.94
2024-02-04T20:00:09.648Z,101215.97
2024-02-04T20:02:36.842Z,101221.22
2024-02-04T20:05:03.677Z,101215.97
2024-02-04T20:07:31.015Z,101229.94
2024-02-04T20:09:58.884Z,101216.88
2024-02-04T20:12:28.596Z,101217.72
2024-02-04T20:14:55.278Z,101220.34
2024-02-04T20:17:21.965Z,101221.16
2024-02-04T20:19:48.650Z,101216.78
2024-02-04T20:22:16.184Z,101216.75
2024-02-04T20:24:43.256Z,101217.63
2024-02-04T20:27:10.382Z,101222.06
2024-02-04T20:29:37.033Z,101209.84
2024-02-04T20:32:04.543Z,101202.88
2024-02-04T20:34:31.213Z,101215.88
2024-02-04T20:36:58.350Z,101211.56
2024-02-04T20:39:25.805Z,101208.03
2024-02-04T20:41:59.097Z,101200.19
2024-02-04T20:44:28.445Z,101209.78
2024-02-04T20:46:55.396Z,101209.78
2024-02-04T20:49:22.170Z,101199.34
2024-02-04T20:51:48.764Z,101193.19
2024-02-04T20:54:15.531Z,101208.03
2024-02-04T20:56:45.054Z,101210.66
2024-02-04T20:59:13.161Z,101214.97
2024-02-04T21:01:40.162Z,101221.03
2024-02-04T21:04:06.968Z,101223.69
2024-02-04T21:06:36.237Z,101229.78
2024-02-04T21:09:04.902Z,101230.59
2024-02-04T21:11:31.748Z,101226.25
2024-02-04T21:13:59.482Z,101231.53
2024-02-04T21:16:26.556Z,101229.78
2024-02-04T21:18:53.373Z,101222.75
2024-02-04T21:21:20.184Z,101222.78
2024-02-04T21:23:46.879Z,101214.03
2024-02-04T21:26:13.454Z,101216.75
2024-02-04T21:28:40.863Z,101217.53
2024-02-04T21:31:08.758Z,101218.44
2024-02-04T21:33:39.164Z,101221.03
2024-02-04T21:36:12.649Z,101207.97
2024-02-04T21:38:43.093Z,101209.72
2024-02-04T21:41:09.674Z,101207.13
2024-02-04T21:43:36.306Z,101199.28
2024-02-04T21:46:03.737Z,101206.22
2024-02-04T21:48:30.615Z,101204.47
2024-02-04T21:50:57.262Z,101212.31
2024-02-04T21:53:23.818Z,101205.34
2024-02-04T21:55:50.393Z,101205.31
2024-02-04T21:58:17.995Z,101204.47
2024-02-04T22:00:44.827Z,101207.94
2024-02-04T22:03:11.580Z,101205.31
2024-02-04T22:05:39.357Z,101203.63
2024-02-04T22:08:06.840Z,101207.13
2024-02-04T22:10:34.342Z,101201.88
2024-02-04T22:13:01.336Z,101221.13
2024-02-04T22:15:28.146Z,101209.75
2024-02-04T22:17:56.682Z,101218.44
2024-02-04T22:20:24.135Z,101231.53
2024-02-04T22:22:50.835Z,101218.44
2024-02-04T22:25:17.478Z,101218.44
2024-02-04T22:27:44.065Z,101221.03
2024-02-04T22:30:11.483Z,101217.53
2024-02-04T22:32:38.032Z,101206.22
2024-02-04T22:35:05.556Z,101221.91
2024-02-04T22:37:32.404Z,101228.91
2024-02-04T22:39:59.002Z,101211.44
2024-02-04T22:42:25.679Z,101228.03
2024-02-04T22:44:52.189Z,101223.56
2024-02-04T22:47:19.245Z,101222.69
2024-02-04T22:49:46.087Z,101224.38
2024-02-04T22:52:12.749Z,101218.31
2024-02-04T22:54:39.354Z,101228.72
2024-02-04T22:57:06.056Z,101224.38
2024-02-04T22:59:32.958Z,101216.47
2024-02-04T23:01:59.721Z,101225.22
2024-02-04T23:04:26.470Z,101233.06
2024-02-04T23:06:53.159Z,101232.22
2024-02-04T23:09:19.709Z,101231.31
2024-02-04T23:11:46.264Z,101241.78
2024-02-04T23:14:12.794Z,101247.03
2024-02-04T23:16:39.306Z,101249.66
2024-02-04T23:19:06.051Z,101233.91
2024-02-04T23:21:32.751Z,101239.13
2024-02-04T23:23:59.379Z,101253.94
2024-02-04T23:26:25.850Z,101247.00
2024-02-04T23:28:52.365Z,101255.75
2024-02-04T23:31:19.157Z,101256.63
2024-02-04T23:33:46.943Z,101253.13
2024-02-04T23:36:14.163Z,101248.75
2024-02-04T23:38:40.806Z,101246.94
2024-02-04T23:41:08.265Z,101259.19
2024-02-04T23:43:34.902Z,101244.31
2024-02-04T23:46:02.271Z,101251.34
2024-02-04T23:48:29.677Z,101247.84
2024-02-04T23:50:56.494Z,101258.28
2024-02-04T23:53:23.004Z,101249.56
2024-02-04T23:55:49.702Z,101249.56
2024-02-04T23:58:16.425Z,101256.53
